ADDS METAR Data INFO
IDs: Format: Raw Decoded Include TAF

Data at: 0155 UTC 17 Oct 2017

KPMV 170135Z AUTO 17008KT 10SM CLR 15/05 A3014 RMK AO2 T01530048
KPMV 170115Z AUTO 17010KT 10SM CLR 16/05 A3013 RMK AO2 T01580048
KPMV 170055Z AUTO 17009KT 10SM CLR 16/05 A3014 RMK AO2 T01610047
KPMV 170035Z AUTO 17008KT 10SM CLR 17/05 A3013 RMK AO2 T01650046
KPMV 170015Z AUTO 18007KT 10SM CLR 17/05 A3014 RMK AO2 T01700045
KPMV 162355Z AUTO 18008KT 10SM CLR 19/04 A3014 RMK AO2 T01850040 10230 20185
KPMV 162335Z AUTO 18009KT 10SM CLR 20/04 A3014 RMK AO2 T01950040
KPMV 162315Z AUTO 18009KT 10SM CLR 20/04 A3014 RMK AO2 T02000040
KPMV 162255Z AUTO 19010KT 10SM CLR 21/04 A3014 RMK AO2 T02080036
KPMV 162235Z AUTO 20012G15KT 10SM CLR 22/03 A3014 RMK AO2 T02170034
KPMV 162215Z AUTO 19011G15KT 10SM CLR 22/03 A3014 RMK AO2 T02230033
KPMV 162155Z AUTO 18012KT 10SM CLR 23/03 A3015 RMK AO2 T02250030
KPMV 162135Z AUTO 19015G22KT 10SM CLR 23/03 A3016 RMK AO2 T02260025
KPMV 162115Z AUTO 20011G21KT 10SM CLR 23/03 A3016 RMK AO2 T02270030
KPMV 162100Z AUTO 20014G18KT 10SM CLR 23/03 A3017 RMK AO2 T02290030
KPMV 162035Z AUTO 19014G20KT 10SM CLR 23/03 A3017 RMK AO2 T02290032
KPMV 162015Z AUTO 21015G20KT 10SM CLR 23/03 A3018 RMK AO2 T02300031
KPMV 161955Z AUTO 20015KT 10SM CLR 23/03 A3019 RMK AO2 T02260025
KPMV 161935Z AUTO 21016G20KT 10SM CLR 23/03 A3020 RMK AO2 T02250025
KPMV 161915Z AUTO 20012G18KT 10SM CLR 22/03 A3021 RMK AO2 T02200030
KPMV 161855Z AUTO 20015G24KT 10SM CLR 22/03 A3023 RMK AO2 T02170028
KPMV 161835Z AUTO 18016G21KT 10SM CLR 21/03 A3024 RMK AO2 T02140029
KPMV 161815Z AUTO 21013G20KT 10SM CLR 21/03 A3026 RMK AO2 T02120028
KPMV 161755Z AUTO 19014G18KT 10SM CLR 21/03 A3028 RMK AO2 T02060029 10206 20040
KPMV 161735Z AUTO 20011G18KT 10SM CLR 20/03 A3029 RMK AO2 T02000033
KPMV 161715Z AUTO 21012KT 10SM CLR 19/03 A3030 RMK AO2 T01940026
KPMV 161655Z AUTO 18009KT 10SM CLR 19/03 A3031 RMK AO2 T01900028
KPMV 161635Z AUTO 16010G15KT 10SM CLR 18/03 A3031 RMK AO2 T01810034
KPMV 161615Z AUTO 17010KT 10SM CLR 17/05 A3032 RMK AO2 T01680048
KPMV 161555Z AUTO 16010KT 10SM CLR 16/05 A3033 RMK AO2 T01570047
KPMV 161535Z AUTO 17010KT 10SM CLR 15/04 A3033 RMK AO2 T01460035
KPMV 161520Z AUTO 16009KT 10SM CLR 14/04 A3033 RMK AO2 T01410035
KPMV 161455Z AUTO 17010KT 10SM CLR 13/03 A3034 RMK AO2 T01260032
KPMV 161435Z AUTO 17007KT 10SM CLR 11/04 A3034 RMK AO2 T01120036
KPMV 161415Z AUTO 18007KT 10SM CLR 10/04 A3034 RMK AO2 T00970039
KPMV 161355Z AUTO 17005KT 10SM CLR 08/03 A3034 RMK AO2 T00770034
KPMV 161335Z AUTO 17005KT 10SM CLR 07/03 A3034 RMK AO2 T00660026
KPMV 161315Z AUTO 17005KT 10SM CLR 05/02 A3034 RMK AO2 T00460021
KPMV 161255Z AUTO 17003KT 10SM CLR 05/02 A3034 RMK AO2 T00460018
KPMV 161235Z AUTO 00000KT 10SM CLR 04/02 A3034 RMK AO2 T00410020
KPMV 161215Z AUTO 00000KT 10SM CLR 04/02 A3034 RMK AO2 T00400018
KPMV 161200Z AUTO 19003KT 10SM CLR 06/01 A3034 RMK AO2 T00640011
KPMV 161135Z AUTO 21004KT 10SM CLR 07/01 A3034 RMK AO2 T00670012
KPMV 161115Z AUTO 22005KT 10SM CLR 07/02 A3034 RMK AO2 T00650015
KPMV 161055Z AUTO 22006KT 10SM CLR 06/02 A3034 RMK AO2 T00610015
KPMV 161015Z AUTO 21003KT 10SM CLR 05/02 A3033 RMK AO2 T00540015
KPMV 160955Z AUTO 21003KT 10SM CLR 06/01 A3033 RMK AO2 T00580014
KPMV 160935Z AUTO 00000KT 10SM CLR 07/02 A3033 RMK AO2 T00700015
KPMV 160915Z AUTO 00000KT 10SM CLR 06/02 A3033 RMK AO2 T00600018
KPMV 160855Z AUTO 00000KT 10SM CLR 06/02 A3033 RMK AO2 T00610020
KPMV 160835Z AUTO 00000KT 10SM CLR 06/02 A3034 RMK AO2 T00610015
KPMV 160815Z AUTO 24003KT 10SM CLR 06/02 A3034 RMK AO2 T00610015
KPMV 160800Z AUTO 23004KT 10SM CLR 06/02 A3034 RMK AO2 T00630015
KPMV 160735Z AUTO 00000KT 10SM CLR 06/02 A3034 RMK AO2 T00630016
KPMV 160715Z AUTO 00000KT 10SM CLR 07/02 A3034 RMK AO2 T00680019
KPMV 160655Z AUTO 27005KT 10SM CLR 08/02 A3034 RMK AO2 T00750019
KPMV 160635Z AUTO 26004KT 10SM CLR 08/02 A3034 RMK AO2 T00780019
KPMV 160615Z AUTO 27006KT 10SM CLR 08/02 A3034 RMK AO2 T00810018
KPMV 160555Z AUTO 27005KT 10SM CLR 09/02 A3034 RMK AO2 T00860018 10131 20078 401540055
KPMV 160535Z AUTO 27005KT 10SM CLR 09/02 A3034 RMK AO2 T00860019
KPMV 160515Z AUTO 27006KT 10SM CLR 09/02 A3034 RMK AO2 T00890019
KPMV 160455Z AUTO 26005KT 10SM CLR 08/02 A3034 RMK AO2 T00820020
KPMV 160435Z AUTO 27004KT 10SM CLR 08/02 A3034 RMK AO2 T00840022
KPMV 160415Z AUTO 24006KT 10SM CLR 09/02 A3034 RMK AO2 T00890022
KPMV 160355Z AUTO 24005KT 10SM CLR 09/02 A3033 RMK AO2 T00890020
KPMV 160335Z AUTO 24005KT 10SM CLR 09/02 A3033 RMK AO2 T00900020
KPMV 160315Z AUTO 22007KT 10SM CLR 09/02 A3033 RMK AO2 T00920020
KPMV 160255Z AUTO 22006KT 10SM CLR 09/02 A3032 RMK AO2 T00920020
KPMV 160235Z AUTO 22005KT 10SM CLR 09/02 A3032 RMK AO2 T00920020
KPMV 160215Z AUTO 22005KT 10SM CLR 10/02 A3032 RMK AO2 T00960019
KPMV 160155Z AUTO 21005KT 10SM CLR 10/02 A3032 RMK AO2 T01000018
KPMV 160140Z AUTO 21005KT 10SM CLR 10/02 A3032 RMK AO2 T01000019
KPMV 160115Z AUTO 20006KT 10SM CLR 10/02 A3032 RMK AO2 T01040016
KPMV 160055Z AUTO 21004KT 10SM CLR 11/02 A3031 RMK AO2 T01070015
KPMV 160035Z AUTO 21004KT 10SM CLR 11/02 A3031 RMK AO2 T01080015
KPMV 160015Z AUTO 00000KT 10SM CLR 12/01 A3031 RMK AO2 T01220010
KPMV 152355Z AUTO 00000KT 10SM CLR 13/01 A3031 RMK AO2 T01330005 10154 20120
KPMV 152335Z AUTO 26004KT 10SM CLR 14/01 A3031 RMK AO2 T01370014
KPMV 152315Z AUTO 27004KT 10SM CLR 15/01 A3031 RMK AO2 T01450008
KPMV 152255Z AUTO 26007KT 10SM CLR 15/01 A3031 RMK AO2 T01510005
KPMV 152235Z AUTO 28008KT 10SM CLR 15/01 A3031 RMK AO2 T01530008
KPMV 152215Z AUTO 30008KT 10SM CLR 15/01 A3032 RMK AO2 T01540005
KPMV 152155Z AUTO 29007KT 10SM CLR 15/01 A3032 RMK AO2 T01540007
KPMV 152135Z AUTO 28007G15KT 10SM CLR 15/01 A3032 RMK AO2 T01510005
KPMV 152115Z AUTO 30006KT 10SM CLR 15/01 A3033 RMK AO2 T01520006
KPMV 152055Z AUTO 30008KT 10SM CLR 15/01 A3033 RMK AO2 T01500006
KPMV 152035Z AUTO 30006KT 10SM CLR 15/01 A3033 RMK AO2 T01480006
KPMV 152015Z AUTO 31009KT 10SM CLR 15/01 A3032 RMK AO2 T01450007
KPMV 151955Z AUTO 33005KT 10SM CLR 14/01 A3033 RMK AO2 T01410008
KPMV 151935Z AUTO 32010KT 10SM CLR 14/01 A3033 RMK AO2 T01390011
KPMV 151915Z AUTO 29012G15KT 10SM CLR 14/01 A3034 RMK AO2 T01350014
KPMV 151855Z AUTO 29011G23KT 10SM CLR 13/02 A3035 RMK AO2 T01320019
KPMV 151835Z AUTO 33006G17KT 10SM CLR 13/03 A3036 RMK AO2 T01270025
KPMV 151815Z AUTO 32008G15KT 10SM CLR 12/03 A3036 RMK AO2 T01230026
KPMV 151755Z AUTO 31011KT 10SM CLR 12/03 A3037 RMK AO2 T01190032 10119 20055
KPMV 151735Z AUTO 31012G16KT 10SM CLR 12/03 A3037 RMK AO2 T01150030
KPMV 151715Z AUTO 33011G15KT 10SM CLR 11/03 A3037 RMK AO2 T01090025
KPMV 151655Z AUTO 33009KT 10SM CLR 11/03 A3037 RMK AO2 T01060031
KPMV 151635Z AUTO 32010G14KT 10SM CLR 10/03 A3037 RMK AO2 T01000032
KPMV 151615Z AUTO 32010G15KT 10SM CLR 10/03 A3036 RMK AO2 T00950031
KPMV 151555Z AUTO 32012KT 10SM CLR 09/03 A3035 RMK AO2 T00900032
KPMV 151535Z AUTO 30013G16KT 10SM CLR 08/03 A3035 RMK AO2 T00830031
KPMV 151515Z AUTO 31010G14KT 10SM CLR 08/03 A3034 RMK AO2 T00770030
KPMV 151455Z AUTO 31009KT 10SM CLR 07/03 A3033 RMK AO2 T00720029
KPMV 151435Z AUTO 30011KT 10SM CLR 07/03 A3032 RMK AO2 T00660029
KPMV 151415Z AUTO 30009G14KT 10SM CLR 06/03 A3032 RMK AO2 T00610029